Time;durP1;ratioP1;P1;durP2;ratioP2;P2;SDS_P1;SDS_P2;PMS_P1;PMS_P2;Temp;Humidity;BMP_temperature;BMP_pressure;BME280_temperature;BME280_humidity;BME280_pressure;Samples;Min_cycle;Max_cycle;Signal;HPM_P1;HPM_P2
2021/05/22 12:02:04;;;;;;;;;;;;;;;;;;5042081;28;1972;-69
2021/05/22 12:04:29;;;;;;;;;;;;;;;;;;5042916;28;8979;-69
2021/05/22 12:18:43;;;;;;;4.80;0.68;;;23.20;84.90;;;21.15;39.74;99835.34;5063874;27;20410;-60
2021/05/22 12:22:28;;;;;;;2.15;0.55;;;22.30;87.40;;;21.08;39.80;99841.34;5006532;28;20367;-61
2021/05/22 12:24:55;;;;;;;5.03;0.60;;;22.10;88.30;;;21.07;39.84;99846.84;5030428;28;20085;-60
2021/05/22 12:27:21;;;;;;;2.65;0.60;;;22.10;88.50;;;21.05;39.88;99836.28;5014244;28;20773;-61
2021/05/22 12:29:51;;;;;;;3.17;0.50;;;22.00;88.00;;;21.06;39.71;99840.66;5015771;28;20393;-61
2021/05/22 12:32:18;;;;;;;2.35;0.40;;;22.10;88.00;;;21.05;39.68;99833.63;5014149;28;20072;-60
2021/05/22 12:34:45;;;;;;;4.40;0.80;;;22.00;87.70;;;21.01;39.71;99840.28;5015886;28;20116;-60
2021/05/22 12:37:20;;;;;;;3.22;0.77;;;22.00;87.50;;;21.01;39.71;99859.03;5012827;28;20461;-60
2021/05/22 12:39:50;;;;;;;1.23;0.30;;;22.00;87.70;;;20.97;39.68;99868.41;5014039;28;20026;-61
2021/05/22 12:42:26;;;;;;;5.30;0.77;;;21.90;87.50;;;21.00;39.11;99872.59;5014193;28;20026;-61
2021/05/22 12:44:57;;;;;;;1.17;0.40;;;22.00;86.70;;;20.98;39.58;99888.78;5011051;28;20030;-60
2021/05/22 12:47:35;;;;;;;1.42;0.60;;;21.90;87.30;;;20.99;39.27;99890.47;5014578;28;20057;-61
2021/05/22 12:50:05;;;;;;;1.15;0.55;;;21.90;87.10;;;20.98;39.28;99898.66;4997585;28;20080;-61
2021/05/22 12:52:47;;;;;;;3.58;0.50;;;21.90;87.10;;;20.97;39.31;99900.50;5012612;28;20042;-61
2021/05/22 12:55:29;;;;;;;2.63;0.60;;;21.90;86.40;;;20.94;39.03;99892.78;5012700;28;20113;-61
2021/05/22 12:58:02;;;;;;;2.03;0.52;;;21.80;87.20;;;20.94;39.32;99889.28;5014148;28;20421;-61
2021/05/22 13:00:32;;;;;;;1.73;0.32;;;21.80;86.80;;;20.95;39.42;99885.56;5016121;28;20411;-61
2021/05/22 13:03:01;;;;;;;1.00;0.45;;;21.80;87.10;;;20.96;39.41;99881.91;5013195;28;20033;-60
2021/05/22 13:05:35;;;;;;;1.27;0.40;;;21.90;87.10;;;20.95;39.51;99885.56;5013502;28;20030;-61
2021/05/22 13:08:09;;;;;;;1.35;0.32;;;21.90;87.20;;;20.97;39.47;99892.47;5014040;28;20034;-61
2021/05/22 13:10:42;;;;;;;2.13;0.47;;;21.90;87.30;;;20.98;39.41;99891.47;5012353;28;20101;-60
2021/05/22 13:13:20;;;;;;;1.95;0.40;;;21.90;86.90;;;20.97;39.48;99892.47;5029005;28;20030;-61
2021/05/22 13:15:52;;;;;;;1.65;0.50;;;21.80;86.70;;;20.97;39.40;99895.16;5014766;28;20027;-61
2021/05/22 13:18:28;;;;;;;2.22;0.38;;;21.90;86.80;;;20.98;39.44;99896.81;5011404;28;20034;-60
2021/05/22 13:21:05;;;;;;;1.80;0.35;;;21.90;86.70;;;20.98;39.30;99891.47;5015244;28;20026;-61
2021/05/22 13:23:44;;;;;;;1.60;0.35;;;21.90;86.70;;;20.95;39.11;99883.78;5014328;28;20042;-61
2021/05/22 13:26:29;;;;;;;1.92;0.38;;;21.80;86.40;;;20.92;39.22;99904.66;5012334;28;20022;-60
2021/05/22 13:28:59;;;;;;;4.45;0.50;;;21.80;86.20;;;20.91;39.17;99901.13;5011778;28;20058;-61
2021/05/22 13:31:40;;;;;;;1.90;0.63;;;21.80;87.30;;;20.89;39.64;99919.19;5014871;28;20108;-61
2021/05/22 13:34:11;;;;;;;0.75;0.40;;;21.80;86.90;;;20.89;39.75;99936.06;4997411;28;20403;-60
2021/05/22 13:36:39;;;;;;;3.13;0.50;;;21.80;87.10;;;20.86;39.37;99956.94;5000219;28;20037;-60
2021/05/22 13:39:14;;;;;;;1.35;0.38;;;21.70;86.50;;;20.82;39.93;99956.44;5001094;28;20069;-61
2021/05/22 13:41:43;;;;;;;3.38;0.57;;;21.70;87.40;;;20.80;39.25;99949.53;5001810;28;20040;-61
2021/05/22 13:44:13;;;;;;;0.80;0.20;;;21.60;86.60;;;20.77;39.18;99957.88;4999277;28;20030;-61
2021/05/22 13:46:40;;;;;;;1.00;0.35;;;21.60;86.50;;;20.74;39.22;99963.56;4997000;28;20030;-61
2021/05/22 13:49:07;;;;;;;1.92;0.40;;;21.50;86.70;;;20.68;39.59;99957.81;4998704;28;20479;-61
2021/05/22 13:51:35;;;;;;;0.85;0.30;;;21.50;87.00;;;20.68;40.03;99960.50;4999838;28;20478;-61
2021/05/22 13:54:01;;;;;;;2.08;0.40;;;21.50;87.50;;;20.63;40.70;99960.13;4990360;28;20054;-61
2021/05/22 13:56:27;;;;;;;1.20;0.35;;;21.50;88.50;;;20.62;40.71;99949.56;4989681;28;20447;-61
2021/05/22 13:58:53;;;;;;;1.65;0.32;;;21.50;88.60;;;20.61;41.10;99958.63;4989311;28;20065;-61
2021/05/22 14:01:19;;;;;;;1.77;0.20;;;21.40;89.10;;;20.62;41.15;99950.41;4990834;28;20057;-61
2021/05/22 14:03:45;;;;;;;1.25;0.30;;;21.50;89.30;;;20.64;41.48;99956.44;4990048;28;20390;-61
2021/05/22 14:06:13;;;;;;;0.40;0.22;;;21.50;89.30;;;20.66;41.58;99951.78;4995070;28;20030;-61
2021/05/22 14:27:34;;;;;;;0.82;0.40;;;23.30;93.20;;;21.51;40.42;99940.41;5049948;28;20399;-64
2021/05/22 14:30:00;;;;;;;1.88;0.43;;;23.00;87.00;;;21.11;41.24;99947.25;5016620;28;20042;-64
2021/05/22 14:32:27;;;;;;;3.30;0.90;;;22.50;88.90;;;21.05;41.41;99946.03;5005953;28;20036;-65
2021/05/22 14:34:53;;;;;;;1.48;0.55;;;22.20;88.80;;;20.98;41.88;99950.34;5005503;28;20022;-65
2021/05/22 14:37:19;;;;;;;4.25;0.60;;;22.10;89.50;;;20.95;41.84;99948.00;5003643;28;20034;-65
2021/05/22 14:39:45;;;;;;;2.75;0.40;;;21.90;89.60;;;20.92;41.95;99947.47;5003425;28;20387;-64
2021/05/22 14:42:11;;;;;;;13.32;0.88;;;21.80;90.00;;;20.98;42.10;99941.47;5004007;28;20501;-65
2021/05/22 14:44:38;;;;;;;5.25;0.32;;;21.80;90.50;;;21.04;41.20;99943.53;5003217;28;20030;-66
2021/05/22 14:47:05;;;;;;;3.45;0.50;;;21.70;89.90;;;20.92;42.06;99950.13;4983594;28;20123;-66
2021/05/22 14:49:32;;;;;;;7.20;0.50;;;21.80;90.20;;;20.83;42.22;99935.88;5003949;28;20022;-65
2021/05/22 14:52:02;;;;;;;2.35;0.50;;;21.70;90.10;;;20.84;42.38;99942.88;5004046;28;20387;-65
2021/05/22 15:57:51;;;;;;;7.03;0.57;;;12.70;99.90;;;11.49;85.47;99977.56;5044064;28;20058;-78
2021/05/22 16:00:19;;;;;;;;;;;12.70;99.90;;;11.36;86.67;99978.38;5049759;28;20194;-78
2021/05/22 16:05:45;;;;;;;2.78;0.60;;;12.50;99.90;;;11.39;88.12;99986.13;5044634;28;20038;-77
2021/05/22 16:08:12;;;;;;;1.00;0.55;;;12.60;99.90;;;11.53;88.31;99980.81;5043236;28;20049;-78
2021/05/22 16:10:39;;;;;;;1.85;0.73;;;12.70;99.90;;;11.61;88.14;99980.34;5027057;28;20077;-77
2021/05/22 16:13:05;;;;;;;5.78;0.88;;;12.70;99.90;;;11.61;87.87;99975.09;5018757;28;20066;-78
2021/05/22 16:15:31;;;;;;;1.13;0.50;;;12.70;99.90;;;11.64;88.82;99978.38;5044188;28;20047;-78
2021/05/22 16:17:58;;;;;;;2.78;0.60;;;12.80;99.90;;;11.74;88.85;99976.00;5024324;28;20655;-78
2021/05/22 16:20:25;;;;;;;1.90;0.50;;;13.00;99.90;;;11.96;86.86;99972.88;4993402;28;20082;-77
2021/05/22 16:22:54;;;;;;;1.63;0.70;;;13.10;99.90;;;12.03;86.27;99976.81;4942803;28;20104;-77
2021/05/22 16:25:22;;;;;;;2.20;0.70;;;13.10;99.90;;;12.05;84.68;99980.22;5006321;28;20076;-77
2021/05/22 16:27:48;;;;;;;1.05;0.50;;;13.10;99.90;;;12.02;84.06;99979.53;4957712;28;20072;-77
2021/05/22 16:30:15;;;;;;;3.50;0.75;;;13.10;99.90;;;11.98;85.39;99973.63;4927508;28;20118;-77
2021/05/22 16:32:41;;;;;;;1.55;0.60;;;13.10;99.90;;;12.06;83.66;99976.59;4978312;28;20085;-77
2021/05/22 16:35:09;;;;;;;2.13;0.77;;;13.10;99.90;;;12.02;80.73;99984.81;4953281;28;20494;-78
2021/05/22 16:37:35;;;;;;;1.75;0.60;;;13.10;99.90;;;12.00;80.98;99981.44;4950705;28;20670;-77
2021/05/22 16:40:07;;;;;;;1.52;0.70;;;13.10;99.90;;;12.03;78.35;99979.47;4939553;28;20088;-77
2021/05/22 16:42:36;;;;;;;2.30;0.60;;;13.20;99.90;;;12.02;78.70;99979.53;4975465;28;20147;-76
2021/05/22 16:45:03;;;;;;;2.95;0.90;;;13.10;99.90;;;11.95;78.99;99979.09;4973625;28;20063;-77
2021/05/22 16:47:34;;;;;;;1.27;0.60;;;13.10;99.90;;;11.87;80.74;99991.91;4944220;28;20079;-78
2021/05/22 16:50:00;;;;;;;1.55;0.63;;;13.00;99.90;;;11.69;80.71;99989.47;4936889;28;20079;-77
2021/05/22 16:52:27;;;;;;;3.30;0.63;;;12.80;99.90;;;11.58;80.76;99988.47;4936859;28;20063;-77
2021/05/22 16:54:53;;;;;;;3.22;0.55;;;12.70;99.90;;;11.53;79.71;99983.47;4946630;28;20401;-77
2021/05/22 16:57:19;;;;;;;0.73;0.38;;;12.60;99.90;;;11.40;82.01;99983.41;4954476;28;20123;-77
2021/05/22 16:59:46;;;;;;;1.73;0.65;;;12.50;99.90;;;11.36;81.34;99992.44;4938378;28;20123;-77
2021/05/22 17:02:13;;;;;;;3.00;1.10;;;12.50;99.90;;;11.38;80.61;99990.56;4954560;28;20095;-77
2021/05/22 17:04:39;;;;;;;2.65;0.52;;;12.50;99.90;;;11.36;80.15;99986.28;4964216;28;20130;-77
2021/05/22 17:07:05;;;;;;;1.80;0.70;;;12.60;99.90;;;11.42;79.88;99993.84;4938568;28;20531;-77
2021/05/22 17:09:31;;;;;;;1.50;0.50;;;12.60;99.90;;;11.42;78.56;99993.84;4933979;28;20076;-77
2021/05/22 17:11:57;;;;;;;3.53;0.73;;;12.60;99.90;;;11.44;79.87;99999.84;4934310;28;20073;-77
2021/05/22 17:14:28;;;;;;;2.70;1.15;;;12.60;99.90;;;11.45;78.08;99991.88;4964038;28;20077;-77
2021/05/22 17:16:55;;;;;;;7.07;1.33;;;12.60;99.90;;;11.56;80.21;99985.09;4939167;28;20066;-77
2021/05/22 17:19:21;;;;;;;2.03;0.75;;;12.70;99.90;;;11.57;79.02;99987.59;4964113;28;20151;-77
2021/05/22 17:21:47;;;;;;;2.38;0.93;;;12.70;99.90;;;11.58;78.75;99985.84;4941169;28;20071;-78
2021/05/22 17:24:16;;;;;;;2.60;0.70;;;12.70;99.90;;;11.58;79.66;100002.50;4925430;28;20516;-77
2021/05/22 17:26:45;;;;;;;2.85;0.88;;;12.70;99.90;;;11.62;79.65;99990.81;4962462;28;20071;-77
2021/05/22 17:29:11;;;;;;;2.97;0.60;;;12.70;99.90;;;11.56;78.72;99999.09;4938660;28;20108;-77
2021/05/22 17:31:37;;;;;;;1.83;0.70;;;12.70;99.90;;;11.53;80.13;100001.91;4923303;28;20081;-77
2021/05/22 17:34:03;;;;;;;1.83;0.35;;;12.60;99.90;;;11.49;81.29;100003.06;4944376;28;20130;-77
2021/05/22 17:36:33;;;;;;;0.68;0.43;;;12.60;99.90;;;11.45;82.35;100001.56;4932123;28;20074;-77
2021/05/22 17:38:59;;;;;;;3.60;0.50;;;12.60;99.90;;;11.42;81.14;99999.09;4964111;28;20060;-77
2021/05/22 17:41:26;;;;;;;0.63;0.47;;;12.60;99.90;;;11.43;81.07;100009.56;4942153;28;20592;-77
2021/05/22 17:43:52;;;;;;;3.22;0.35;;;12.60;99.90;;;11.39;82.22;100017.75;4977481;28;20092;-77
2021/05/22 17:46:19;;;;;;;0.50;0.38;;;12.50;99.90;;;11.34;82.12;100006.63;4920941;28;20095;-77
2021/05/22 17:48:45;;;;;;;0.70;0.40;;;12.50;99.90;;;11.32;81.85;100019.03;4953778;28;20619;-77
2021/05/22 17:51:11;;;;;;;3.30;0.60;;;12.50;99.90;;;11.28;81.91;100019.25;4922778;28;20085;-76
2021/05/22 17:53:37;;;;;;;0.40;0.40;;;12.40;99.90;;;11.26;80.92;100017.66;4931272;28;20154;-77
2021/05/22 17:56:04;;;;;;;1.63;0.50;;;12.40;99.90;;;11.22;80.97;100022.25;4951370;28;20679;-77
2021/05/22 17:58:30;;;;;;;1.80;0.50;;;12.30;99.90;;;11.19;81.10;100019.81;4948118;28;20096;-77
2021/05/22 18:00:56;;;;;;;2.15;0.57;;;12.40;99.90;;;11.17;81.67;100018.22;4931743;28;20617;-77
2021/05/22 18:03:21;;;;;;;2.75;0.70;;;12.30;99.90;;;11.10;81.72;100020.38;4956350;28;20087;-77
2021/05/22 18:05:47;;;;;;;1.20;0.50;;;12.30;99.90;;;11.06;82.43;100019.72;4938095;28;20163;-77
2021/05/22 18:08:15;;;;;;;0.98;0.60;;;12.20;99.90;;;11.02;82.14;100019.97;4955761;28;20079;-77
2021/05/22 18:10:45;;;;;;;0.52;0.50;;;12.20;99.90;;;10.98;82.85;100024.56;4962967;28;20543;-77
2021/05/22 18:13:13;;;;;;;2.47;0.40;;;12.20;99.90;;;10.94;82.82;100022.22;4953812;28;20142;-77
2021/05/22 18:15:40;;;;;;;0.30;0.30;;;12.10;99.90;;;10.91;83.66;100025.88;4957397;28;20063;-77
2021/05/22 18:18:06;;;;;;;0.40;0.30;;;12.10;99.90;;;10.86;83.33;100028.78;4918016;28;20558;-77
2021/05/22 18:20:34;;;;;;;1.83;0.45;;;12.00;99.90;;;10.81;84.41;100025.56;4961001;28;20440;-77
2021/05/22 18:23:01;;;;;;;1.38;0.90;;;12.00;99.90;;;10.79;84.01;100030.06;4930702;28;20114;-77
2021/05/22 18:25:27;;;;;;;1.88;0.50;;;12.00;99.90;;;10.75;85.21;100027.72;4969301;28;20469;-77
2021/05/22 18:27:57;;;;;;;1.52;0.70;;;12.00;99.90;;;10.75;85.84;100028.56;4961575;28;20067;-77
2021/05/22 18:30:26;;;;;;;2.53;0.30;;;11.90;99.90;;;10.74;85.63;100026.03;4947696;28;20060;-77
2021/05/22 18:32:52;;;;;;;2.35;0.47;;;11.90;99.90;;;10.70;85.64;100027.16;4962691;28;21903;-77
2021/05/22 18:35:19;;;;;;;1.30;0.30;;;11.90;99.90;;;10.73;85.66;100029.59;4945302;28;20560;-77
2021/05/22 18:37:47;;;;;;;0.30;0.30;;;11.90;99.90;;;10.67;85.76;100030.81;4953949;28;20070;-77
2021/05/22 18:40:19;;;;;;;0.75;0.43;;;11.90;99.90;;;10.68;85.49;100032.50;4935779;28;20072;-76
2021/05/22 18:42:46;;;;;;;0.45;0.40;;;11.90;99.90;;;10.67;86.43;100042.19;4962999;28;20080;-77
2021/05/22 18:45:15;;;;;;;0.75;0.40;;;11.90;99.90;;;10.66;86.80;100037.84;4948950;28;20070;-77
2021/05/22 18:47:42;;;;;;;3.90;0.70;;;11.80;99.90;;;10.57;88.04;100051.53;4957568;28;20100;-77
2021/05/22 18:50:13;;;;;;;1.98;0.68;;;11.70;99.90;;;10.44;89.65;100050.53;4961852;28;20074;-77
2021/05/22 18:52:39;;;;;;;1.42;0.60;;;11.60;99.90;;;10.36;92.01;100058.88;4931845;28;20122;-77
2021/05/22 18:55:07;;;;;;;2.05;0.60;;;11.50;99.90;;;10.34;90.67;100063.38;4932247;28;20071;-77
2021/05/22 18:57:33;;;;;;;0.80;0.57;;;11.50;99.90;;;10.32;90.70;100067.84;4932355;28;20476;-77
2021/05/22 18:59:59;;;;;;;0.50;0.40;;;11.50;99.90;;;10.31;91.49;100066.19;4946474;28;20154;-77
2021/05/22 19:02:35;;;;;;;1.13;0.60;;;11.50;99.90;;;10.25;91.99;100066.47;4900398;28;20953;-77
2021/05/22 19:05:07;;;;;;;3.22;0.70;;;11.40;99.90;;;10.24;91.81;100073.53;4897984;28;20098;-77
2021/05/22 19:07:39;;;;;;;2.10;0.95;;;11.50;99.90;;;10.23;91.93;100070.97;4913099;28;20071;-76
2021/05/22 19:10:20;;;;;;;1.77;0.70;;;11.40;99.90;;;10.21;91.78;100068.44;4873976;28;20149;-77
2021/05/22 19:13:08;;;;;;;0.98;0.73;;;11.40;99.90;;;10.22;91.20;100066.66;4894626;28;20458;-77
2021/05/22 19:15:42;;;;;;;0.90;0.55;;;11.40;99.90;;;10.24;91.48;100076.16;4913054;28;20059;-77
2021/05/22 19:18:21;;;;;;;1.00;0.85;;;11.40;99.90;;;10.21;92.06;100083.38;4901359;28;20519;-77
2021/05/22 19:21:07;;;;;;;3.50;0.80;;;11.50;99.90;;;10.26;91.15;100076.09;4898720;28;20143;-77
2021/05/22 19:23:58;;;;;;;1.67;0.87;;;11.40;99.90;;;10.27;90.82;100083.03;4894169;28;20087;-77
2021/05/22 19:26:35;;;;;;;3.13;1.05;;;11.50;99.90;;;10.31;90.66;100075.88;4873630;28;20833;-77
2021/05/22 19:29:23;;;;;;;1.08;0.50;;;11.50;99.90;;;10.30;90.43;100085.50;4900914;28;20148;-77
2021/05/22 19:32:20;;;;;;;0.93;0.60;;;11.50;99.90;;;10.29;91.25;100080.31;4967810;28;20085;-77
2021/05/22 19:35:34;;;;;;;5.72;0.52;;;11.50;99.90;;;10.30;90.18;100085.50;4903976;28;20092;-77
2021/05/22 19:38:05;;;;;;;0.70;0.70;;;11.60;99.90;;;10.33;89.32;100093.25;4915456;28;20329;-78
2021/05/22 19:40:44;;;;;;;3.90;0.73;;;11.60;99.90;;;10.32;89.99;100088.06;4889901;28;20125;-77
2021/05/22 19:43:11;;;;;;;2.25;0.65;;;11.60;99.90;;;10.34;89.53;100092.31;4903879;28;20081;-77
2021/05/22 19:45:59;;;;;;;1.20;0.60;;;11.60;99.90;;;10.34;89.35;100091.47;4912721;28;20550;-77
2021/05/22 19:49:03;;;;;;;2.30;0.80;;;11.60;99.90;;;10.29;90.57;100088.22;4916553;28;20096;-77
2021/05/22 19:52:05;;;;;;;0.73;0.40;;;11.50;99.90;;;10.26;89.78;100084.81;4892305;28;20082;-77
2021/05/22 19:54:48;;;;;;;1.38;0.70;;;11.50;99.90;;;10.30;89.42;100088.16;4898456;28;20073;-77
2021/05/22 19:57:49;;;;;;;1.33;0.63;;;11.50;99.90;;;10.30;89.84;100097.84;4898927;28;20073;-77
2021/05/22 20:00:53;;;;;;;0.70;0.47;;;11.50;99.90;;;10.25;89.60;100098.06;4904113;28;20527;-77
2021/05/22 20:03:47;;;;;;;0.60;0.60;;;11.40;99.90;;;10.16;91.06;100098.56;4907551;28;20100;-78
2021/05/22 20:06:49;;;;;;;0.77;0.70;;;11.30;99.90;;;10.06;91.69;100098.22;4903475;28;20069;-77
2021/05/22 20:09:22;;;;;;;3.75;0.90;;;11.30;99.90;;;10.01;92.26;100106.34;4904808;28;20068;-77
2021/05/22 20:12:31;;;;;;;1.08;0.52;;;11.20;99.90;;;10.01;92.49;100105.50;4904068;28;20093;-77
2021/05/22 20:16:03;;;;;;;0.98;0.52;;;11.20;99.90;;;9.92;93.01;100106.84;4895971;28;20086;-77
2021/05/22 20:18:39;;;;;;;3.83;0.60;;;11.10;99.90;;;9.78;94.58;100109.38;4902112;28;20112;-77
2021/05/22 20:21:15;;;;;;;0.68;0.50;;;11.00;99.90;;;9.72;94.62;100110.56;4869745;28;20074;-76
2021/05/22 20:23:42;;;;;;;0.73;0.60;;;10.90;99.90;;;9.62;95.07;100104.91;4897651;28;20097;-76
2021/05/22 20:26:44;;;;;;;4.80;0.60;;;10.80;99.90;;;9.51;95.71;100102.00;4916399;28;20068;-77
2021/05/22 20:29:11;;;;;;;1.00;0.70;;;10.70;99.90;;;9.42;96.20;100105.97;4933951;28;20170;-77
2021/05/22 20:31:37;;;;;;;0.93;0.80;;;10.70;99.90;;;9.39;96.24;100114.00;4971014;28;20167;-76
2021/05/22 20:34:04;;;;;;;1.13;1.00;;;10.60;99.90;;;9.27;97.37;100103.28;4948236;28;20149;-76
2021/05/22 20:36:30;;;;;;;5.32;0.95;;;10.50;99.90;;;9.21;97.72;100112.31;4935032;28;22488;-76
2021/05/22 20:38:56;;;;;;;3.80;0.90;;;10.50;99.90;;;9.18;97.76;100115.97;4952717;28;20544;-76
2021/05/22 20:41:23;;;;;;;3.40;0.77;;;10.50;99.90;;;9.17;97.98;100116.88;4956188;28;20979;-76
2021/05/22 20:43:49;;;;;;;1.80;1.00;;;10.40;99.90;;;9.17;98.64;100108.16;4942146;28;20148;-76
2021/05/22 20:46:15;;;;;;;1.85;1.00;;;10.40;99.90;;;9.11;98.78;100113.69;4944731;28;20076;-76
2021/05/22 20:48:41;;;;;;;2.65;1.10;;;10.40;99.90;;;9.14;98.63;100117.03;4964335;28;20524;-77
2021/05/22 20:51:10;;;;;;;2.15;1.17;;;10.40;99.90;;;9.13;98.11;100117.09;4965157;28;20092;-76
2021/05/22 20:53:36;;;;;;;6.25;1.00;;;10.40;99.90;;;9.13;98.68;100128.44;4956453;28;20136;-76
2021/05/22 20:56:02;;;;;;;3.15;1.20;;;10.40;99.90;;;9.14;97.94;100121.44;4956853;28;20538;-76
2021/05/22 20:58:31;;;;;;;2.03;1.10;;;10.40;99.90;;;9.10;98.48;100122.53;4963482;28;20473;-77
2021/05/22 21:00:58;;;;;;;1.52;0.90;;;10.40;99.90;;;9.14;98.73;100126.69;4965145;28;20073;-77
2021/05/22 21:03:26;;;;;;;1.98;1.20;;;10.40;99.90;;;9.11;98.68;100130.31;4964617;28;20172;-77
2021/05/22 21:05:52;;;;;;;2.45;1.10;;;10.40;99.90;;;9.18;98.34;100130.88;4978787;28;20080;-77
2021/05/22 21:08:26;;;;;;;3.92;1.02;;;10.50;99.90;;;9.23;98.57;100140.19;4941264;28;20071;-76
2021/05/22 21:10:59;;;;;;;1.55;1.20;;;10.50;99.90;;;9.32;97.44;100143.31;4954929;28;20115;-77
2021/05/22 21:13:27;;;;;;;3.15;1.15;;;10.60;99.90;;;9.34;97.38;100141.44;4964539;28;20064;-76
2021/05/22 21:15:59;;;;;;;1.63;1.02;;;10.60;99.90;;;9.34;97.50;100141.44;4938768;28;20444;-77
2021/05/22 21:18:27;;;;;;;2.25;1.13;;;10.60;99.90;;;9.32;97.58;100141.50;4948381;28;20137;-76
2021/05/22 21:20:53;;;;;;;3.70;1.27;;;10.60;99.90;;;9.32;97.67;100148.56;4958811;28;20516;-76
2021/05/22 21:23:19;;;;;;;2.40;1.23;;;10.60;99.90;;;9.28;97.68;100142.59;4957540;28;20480;-76
2021/05/22 21:25:47;;;;;;;1.90;1.10;;;10.50;99.90;;;9.27;97.53;100142.69;4941223;28;20457;-76
2021/05/22 21:28:13;;;;;;;3.88;1.20;;;10.50;99.90;;;9.30;97.83;100145.16;4962534;28;20468;-76
2021/05/22 21:30:44;;;;;;;2.90;1.35;;;10.60;99.90;;;9.37;97.26;100144.78;4955982;28;20100;-77
2021/05/22 21:33:10;;;;;;;3.85;1.30;;;10.60;99.90;;;9.41;97.19;100142.81;4962662;28;25970;-76
2021/05/22 21:35:36;;;;;;;2.60;1.23;;;10.70;99.90;;;9.41;96.96;100148.91;4915605;28;20064;-76
2021/05/22 21:38:04;;;;;;;2.95;1.52;;;10.70;99.90;;;9.40;97.37;100149.88;4947271;28;20081;-77
2021/05/22 21:40:31;;;;;;;1.25;1.10;;;10.70;99.90;;;9.42;96.64;100157.69;4941886;28;20159;-76
2021/05/22 21:42:59;;;;;;;2.28;1.40;;;10.70;99.90;;;9.44;96.44;100155.81;4933887;28;20149;-76
2021/05/22 21:45:26;;;;;;;1.60;1.35;;;10.70;99.90;;;9.42;96.50;100155.06;4955097;28;20104;-76
2021/05/22 21:47:55;;;;;;;1.75;1.33;;;10.70;99.90;;;9.43;96.84;100169.88;4948758;28;20479;-76
2021/05/22 21:50:25;;;;;;;2.00;1.40;;;10.70;99.90;;;9.45;96.34;100165.41;4963050;28;20090;-76
2021/05/22 21:52:53;;;;;;;3.05;1.50;;;10.80;99.90;;;9.49;95.71;100166.94;4956523;28;20061;-76
2021/05/22 21:55:24;;;;;;;3.92;1.40;;;10.80;99.90;;;9.54;95.55;100170.16;4961337;28;20143;-76
2021/05/22 21:57:53;;;;;;;5.22;1.63;;;10.80;99.90;;;9.49;95.86;100164.31;4939104;28;20400;-76
2021/05/22 22:00:46;;;;;;;2.88;1.77;;;10.80;99.90;;;9.45;95.66;100168.03;4937781;28;20159;-76
2021/05/22 22:03:18;;;;;;;5.95;1.60;;;10.70;99.90;;;9.47;96.17;100174.06;4944228;28;20097;-76
2021/05/22 22:05:50;;;;;;;2.40;1.65;;;10.70;99.90;;;9.47;95.91;100168.78;4955099;28;20070;-76
2021/05/22 22:08:20;;;;;;;4.32;1.80;;;10.80;99.90;;;9.52;95.40;100165.94;4978058;28;20075;-76
2021/05/22 22:10:50;;;;;;;3.40;1.17;;;10.80;99.90;;;9.59;95.25;100183.06;4962349;28;20543;-76
2021/05/22 22:13:22;;;;;;;3.65;1.50;;;10.90;99.90;;;9.59;95.11;100178.69;4963769;28;20130;-76
2021/05/22 22:15:50;;;;;;;4.18;1.55;;;10.90;99.90;;;9.65;94.71;100186.28;4953920;28;20617;-76
2021/05/22 22:18:21;;;;;;;1.40;1.30;;;10.90;99.90;;;9.63;94.97;100188.13;4945829;28;20168;-76
2021/05/22 22:21:00;;;;;;;4.70;1.52;;;10.90;99.90;;;9.64;94.95;100192.44;4938907;28;20073;-77
2021/05/22 22:23:29;;;;;;;2.97;1.45;;;10.90;99.90;;;9.63;95.85;100188.13;4953798;28;20092;-77
2021/05/22 22:25:57;;;;;;;3.05;1.70;;;10.90;99.90;;;9.57;96.35;100191.06;4939009;28;20077;-76
2021/05/22 22:28:28;;;;;;;3.50;1.95;;;10.80;99.90;;;9.55;96.79;100197.34;4954329;28;20095;-76
2021/05/22 22:30:53;;;;;;;4.93;1.60;;;10.80;99.90;;;9.48;97.65;100199.41;4947335;28;20077;-76
2021/05/22 22:33:23;;;;;;;1.98;1.65;;;10.70;99.90;;;9.45;97.38;100194.31;4917055;28;20527;-77
2021/05/22 22:35:54;;;;;;;5.60;2.10;;;10.70;99.90;;;9.38;97.17;100187.66;4944460;28;20148;-77
2021/05/22 22:38:22;;;;;;;4.15;1.90;;;10.60;99.90;;;9.26;96.70;100197.00;4940373;28;20467;-77
2021/05/22 22:40:53;;;;;;;12.50;2.35;;;10.50;99.90;;;9.24;95.77;100196.22;4940185;28;20078;-77
2021/05/22 22:43:21;;;;;;;7.40;1.98;;;10.40;99.90;;;9.14;95.89;100192.38;4953592;28;20546;-77
2021/05/22 22:45:52;;;;;;;4.95;2.03;;;10.40;99.90;;;9.08;95.47;100198.75;4945820;28;20068;-77
2021/05/22 22:48:19;;;;;;;4.00;1.92;;;10.30;99.90;;;9.03;95.52;100195.50;4930379;28;20065;-77
2021/05/22 22:50:47;;;;;;;3.55;2.28;;;10.30;99.90;;;8.93;94.91;100195.09;4936787;28;20085;-76
2021/05/22 22:53:13;;;;;;;5.40;2.58;;;10.20;99.90;;;8.82;95.97;100205.25;4959975;28;20131;-76
2021/05/22 22:55:40;;;;;;;5.03;2.40;;;10.10;99.90;;;8.74;95.77;100207.41;4930383;28;20075;-76
2021/05/22 22:58:07;;;;;;;5.35;2.08;;;10.00;99.90;;;8.66;95.67;100199.91;4956988;28;20125;-77
2021/05/22 23:00:38;;;;;;;5.03;2.30;;;10.00;99.90;;;8.65;96.19;100210.47;4949397;28;20074;-76
2021/05/22 23:03:04;;;;;;;7.13;2.83;;;9.90;99.90;;;8.60;95.96;100219.41;4969926;28;20566;-76
2021/05/22 23:05:30;;;;;;;5.38;2.63;;;9.90;99.90;;;8.57;95.67;100213.44;4946210;28;20156;-77
2021/05/22 23:07:59;;;;;;;12.10;3.00;;;9.90;99.90;;;8.51;95.65;100218.97;4953294;28;20075;-76
2021/05/22 23:10:26;;;;;;;7.18;2.80;;;9.70;99.90;;;8.46;95.51;100231.44;4939009;28;20075;-76
2021/05/22 23:12:52;;;;;;;6.43;2.83;;;9.80;99.90;;;8.41;95.48;100227.25;4946668;28;20113;-77
2021/05/22 23:15:18;;;;;;;7.88;2.90;;;9.70;99.90;;;8.35;95.10;100235.38;4961351;28;20080;-77
2021/05/22 23:17:47;;;;;;;4.00;2.58;;;9.60;99.90;;;8.27;95.58;100227.03;4977830;28;20067;-77
2021/05/22 23:20:21;;;;;;;7.47;2.63;;;9.60;99.90;;;8.28;94.90;100233.09;4953728;28;20074;-77
2021/05/22 23:22:48;;;;;;;7.35;2.90;;;9.60;99.90;;;8.28;94.79;100230.50;4962363;28;20071;-77
2021/05/22 23:25:17;;;;;;;8.80;2.88;;;9.60;99.90;;;8.25;95.17;100239.34;4946253;28;20086;-76
2021/05/22 23:27:44;;;;;;;11.55;3.10;;;9.60;99.90;;;8.26;94.76;100241.03;4953367;28;20060;-77
2021/05/22 23:30:16;;;;;;;6.10;2.63;;;9.60;99.90;;;8.23;94.55;100238.56;4929948;28;20599;-77
2021/05/22 23:32:42;;;;;;;9.45;2.78;;;9.60;99.90;;;8.27;94.67;100239.25;4960517;28;20569;-77
2021/05/22 23:35:11;;;;;;;9.35;3.10;;;9.60;99.90;;;8.20;94.87;100243.94;4980471;28;20493;-76
2021/05/22 23:37:38;;;;;;;11.82;2.97;;;9.40;99.90;;;8.05;95.72;100241.97;4938242;28;20537;-77
2021/05/22 23:40:08;;;;;;;6.88;3.28;;;9.40;99.90;;;8.05;95.11;100244.59;4960795;28;20066;-77
2021/05/22 23:42:38;;;;;;;8.25;2.63;;;9.30;99.90;;;7.98;95.53;100237.00;4959819;28;20086;-77
2021/05/22 23:45:07;;;;;;;9.25;2.80;;;9.30;99.90;;;7.95;95.55;100241.56;4945803;28;20406;-77
2021/05/22 23:47:33;;;;;;;7.03;2.50;;;9.30;99.90;;;7.96;94.94;100236.22;4951545;28;20554;-77
2021/05/22 23:50:03;;;;;;;7.60;2.83;;;9.30;99.90;;;7.94;94.48;100245.91;4951830;28;20081;-77
2021/05/22 23:52:32;;;;;;;6.30;2.63;;;9.20;99.90;;;7.87;95.29;100238.41;4957252;28;20069;-77
2021/05/22 23:55:02;;;;;;;6.30;2.58;;;9.20;99.90;;;7.85;95.02;100245.47;4957271;28;20083;-77
2021/05/22 23:57:29;;;;;;;5.93;2.53;;;9.20;99.90;;;7.84;94.51;100241.13;4976572;28;20105;-77
2021/05/22 23:59:59;;;;;;;9.57;3.00;;;9.10;99.90;;;7.80;94.66;100246.53;4967025;28;20104;-77
